Time;durP1;ratioP1;P1;durP2;ratioP2;P2;SDS_P1;SDS_P2;PMS_P1;PMS_P2;Temp;Humidity;BMP_temperature;BMP_pressure;BME280_temperature;BME280_humidity;BME280_pressure;Samples;Min_cycle;Max_cycle;Signal;HPM_P1;HPM_P2
2022/02/10 00:13:59;;;;;;;0.68;0.60;;;;;;;7.11;100.00;100290.47;5034173;28;20403;-84
2022/02/10 00:36:28;;;;;;;0.30;0.30;;;;;;;6.61;100.00;100285.59;5034030;28;20053;-84
2022/02/10 00:42:34;;;;;;;0.68;0.40;;;;;;;6.57;100.00;100274.66;5033877;28;20056;-84
2022/02/10 00:45:38;;;;;;;0.17;0.17;;;;;;;6.62;100.00;100276.09;5032799;28;20491;-84
2022/02/10 00:48:41;;;;;;;0.40;0.40;;;;;;;6.66;100.00;100285.06;5032833;28;20061;-84
2022/02/10 00:51:45;;;;;;;1.85;0.77;;;;;;;6.62;100.00;100284.41;5032924;28;20056;-85
2022/02/10 00:54:48;;;;;;;2.05;0.63;;;;;;;6.58;100.00;100278.94;5032423;28;20395;-84
2022/02/10 00:57:52;;;;;;;0.93;0.45;;;;;;;6.59;100.00;100283.28;5032752;28;20056;-84
2022/02/10 01:10:59;;;;;;;5.47;0.85;;;;;;;6.98;100.00;100260.00;5032928;28;20052;-85
2022/02/10 01:14:06;;;;;;;0.22;0.22;;;;;;;6.98;100.00;100262.78;5032380;28;20052;-85
2022/02/10 01:30:40;;;;;;;1.98;1.20;;;;;;;6.94;100.00;100256.56;5032435;28;20533;-84
2022/02/10 01:33:45;;;;;;;0.75;0.75;;;;;;;6.87;100.00;100254.00;5031920;28;20073;-84
2022/02/10 01:36:48;;;;;;;0.10;0.10;;;;;;;6.88;100.00;100261.09;5031931;28;20060;-84
2022/02/10 01:39:56;;;;;;;0.30;0.30;;;;;;;6.86;100.00;100255.25;5032380;28;20056;-84
2022/02/10 02:04:28;;;;;;;2.53;0.57;;;;;;;6.78;100.00;100259.41;5050911;28;20063;-84
2022/02/10 02:07:32;;;;;;;1.15;0.93;;;;;;;6.81;100.00;100264.84;5050394;28;20056;-86
2022/02/10 02:10:36;;;;;;;0.30;0.30;;;;;;;6.80;100.00;100262.50;5048354;28;20068;-87
2022/02/10 02:13:39;;;;;;;6.75;0.50;;;;;;;6.75;100.00;100279.69;5050100;28;20060;-86
2022/02/10 02:16:55;;;;;;;0.35;0.35;;;;;;;6.67;100.00;100283.88;5050020;28;20080;-87
2022/02/10 02:19:58;;;;;;;0.30;0.30;;;;;;;6.66;100.00;100274.00;5049941;28;20057;-87
2022/02/10 02:23:03;;;;;;;0.30;0.30;;;;;;;6.64;100.00;100279.19;5049102;28;20049;-86
2022/02/10 02:26:12;;;;;;;0.43;0.40;;;;;;;6.60;100.00;100270.22;5049500;28;20052;-87
2022/02/10 02:29:20;;;;;;;0.50;0.50;;;;;;;6.66;100.00;100283.09;5049864;28;20044;-86
2022/02/10 02:32:33;;;;;;;0.38;0.38;;;;;;;6.68;100.00;100277.09;5048936;28;20194;-86
2022/02/10 02:38:23;;;;;;;1.45;0.30;;;;;;;6.40;100.00;100275.91;5111174;27;20391;-89
2022/02/10 03:05:11;;;;;;;0.47;0.43;;;;;;;6.62;100.00;100268.59;5088578;28;20055;-82
2022/02/10 03:08:18;;;;;;;0.30;0.30;;;;;;;6.49;100.00;100270.53;5087679;28;20059;-82
2022/02/10 03:11:21;;;;;;;0.20;0.20;;;;;;;6.38;100.00;100272.03;5087839;28;20055;-82
2022/02/10 03:14:31;;;;;;;0.15;0.15;;;;;;;6.26;100.00;100265.22;5088231;28;20047;-81
2022/02/10 04:14:16;;;;;;;0.40;0.40;;;;;;;5.93;100.00;100267.28;5094123;28;20047;-81
2022/02/10 04:27:26;;;;;;;0.30;0.30;;;;;;;5.87;100.00;100255.19;5093273;28;20052;-82
2022/02/10 07:57:29;;;;;;;0.95;0.77;;;;;;;3.26;100.00;100327.72;6317517;22;20018;-54
2022/02/10 10:03:24;;;;;;;4.75;0.47;;;;;;;6.42;100.00;100325.25;6306076;22;20038;-51
2022/02/10 10:06:47;;;;;;;0.40;0.40;;;;;;;6.61;100.00;100316.03;6307524;22;20371;-51
2022/02/10 10:17:01;;;;;;;2.13;0.35;;;;;;;6.99;100.00;100319.72;6316180;22;20458;-54
2022/02/10 10:20:22;;;;;;;0.35;0.22;;;;;;;7.06;100.00;100327.78;6307079;22;20019;-54
2022/02/10 10:50:11;;;;;;;0.17;0.17;;;;;;;7.81;100.00;100315.22;6306888;22;20023;-54
2022/02/10 10:56:29;;;;;;;1.50;0.77;;;;;;;7.89;100.00;100328.41;6317178;22;20022;-54
2022/02/10 10:59:42;;;;;;;0.10;0.10;;;;;;;7.99;100.00;100312.63;6308805;22;20014;-54
2022/02/10 11:37:33;;;;;;;1.90;0.45;;;;;;;8.37;100.00;100277.25;6309075;22;20022;-51
2022/02/10 11:40:40;;;;;;;2.40;0.25;;;;;;;8.43;100.00;100274.66;6308671;22;20018;-51
2022/02/10 11:44:03;;;;;;;0.30;0.30;;;;;;;8.54;100.00;100272.28;6307775;22;20022;-53
2022/02/10 13:24:03;;;;;;;3.05;0.80;;;;;;;11.19;100.00;100276.78;6307534;22;20018;-54
2022/02/10 14:11:53;;;;;;;1.45;0.85;;;;;;;8.84;100.00;100279.91;6307116;22;20023;-53
2022/02/10 14:14:42;;;;;;;1.33;0.50;;;;;;;8.92;100.00;100273.63;6305759;22;20478;-54
2022/02/10 14:17:52;;;;;;;5.55;1.05;;;;;;;9.25;100.00;100287.09;6306647;22;20018;-53
2022/02/10 14:27:25;;;;;;;1.23;0.82;;;;;;;9.65;100.00;100273.97;6306827;22;20022;-54
2022/02/10 14:30:29;;;;;;;1.75;0.20;;;;;;;9.58;100.00;100285.38;6306854;22;20442;-54
2022/02/10 14:33:37;;;;;;;13.48;0.57;;;;;;;9.71;100.00;100286.03;6308610;22;20332;-54
2022/02/10 14:36:45;;;;;;;0.20;0.20;;;;;;;9.62;100.00;100280.44;6309819;22;20038;-58
2022/02/10 15:56:37;;;;;;;7.55;0.65;;;;;;;9.63;100.00;100305.03;6308676;22;20018;-54
2022/02/10 16:19:30;;;;;;;0.70;0.47;;;;;;;8.86;100.00;100311.56;6307281;22;20022;-48
2022/02/10 16:22:48;;;;;;;3.50;0.75;;;;;;;8.91;100.00;100310.97;6307927;22;20014;-47
2022/02/10 16:26:09;;;;;;;1.38;0.88;;;;;;;8.94;100.00;100312.06;6308510;22;20023;-47
2022/02/10 16:29:17;;;;;;;2.65;1.05;;;;;;;8.85;100.00;100315.56;6307458;22;20022;-47
2022/02/10 16:32:20;;;;;;;1.17;1.08;;;;;;;8.83;100.00;100315.25;6308660;22;20018;-47
2022/02/10 16:35:25;;;;;;;1.05;0.73;;;;;;;8.64;100.00;100313.53;6308906;22;20018;-49
2022/02/10 16:38:29;;;;;;;0.50;0.50;;;;;;;8.45;100.00;100328.50;6309537;22;20455;-50
2022/02/10 16:41:32;;;;;;;0.20;0.20;;;;;;;8.54;100.00;100331.34;6306940;22;20018;-49
2022/02/10 16:44:37;;;;;;;1.30;0.98;;;;;;;8.40;100.00;100320.78;6307517;22;20023;-49
2022/02/10 16:47:41;;;;;;;13.18;0.60;;;;;;;8.36;100.00;100329.19;6308710;22;20021;-48
2022/02/10 16:50:45;;;;;;;0.30;0.30;;;;;;;8.35;100.00;100340.75;6308190;22;20058;-49
2022/02/10 16:53:53;;;;;;;6.35;0.52;;;;;;;8.36;100.00;100350.63;6307967;22;20018;-49
2022/02/10 17:20:42;;;;;;;0.20;0.10;;;;;;;7.19;100.00;100367.38;6307487;22;20022;-50
2022/02/10 17:27:38;;;;;;;4.95;0.38;;;;;;;6.77;100.00;100368.59;6306855;22;20022;-51
2022/02/10 17:31:06;;;;;;;0.20;0.20;;;;;;;6.71;100.00;100362.03;6308760;22;20022;-50
2022/02/10 17:53:05;;;;;;;0.40;0.40;;;;;;;6.82;100.00;100362.53;6307321;22;20023;-52
2022/02/10 17:56:09;;;;;;;0.63;0.40;;;;;;;6.86;100.00;100366.72;6307063;22;20466;-52
2022/02/10 17:59:12;;;;;;;0.82;0.63;;;;;;;6.79;100.00;100377.22;6307378;22;20022;-53
2022/02/10 18:02:16;;;;;;;2.60;0.63;;;;;;;6.87;100.00;100379.38;6309420;22;20466;-52
2022/02/10 18:14:56;;;;;;;11.23;1.02;;;;;;;7.16;100.00;100407.03;6316830;22;20288;-49
2022/02/10 18:18:09;;;;;;;13.20;0.82;;;;;;;7.19;100.00;100411.69;6307663;22;20022;-49
2022/02/10 18:27:37;;;;;;;0.15;0.15;;;;;;;7.31;100.00;100422.03;6306646;22;20022;-50
2022/02/10 18:34:37;;;;;;;9.60;1.10;;;;;;;7.23;100.00;100439.31;6306816;22;20018;-50
2022/02/10 19:05:59;;;;;;;2.53;0.50;;;;;;;7.15;100.00;100505.19;5099824;27;20860;-78
2022/02/10 19:08:11;;;;;;;0.60;0.52;;;;;;;7.27;100.00;100518.34;5086065;28;20055;-79
2022/02/10 19:11:16;;;;;;;8.87;1.03;;;;;;;7.25;100.00;100518.00;5087695;28;20051;-78
2022/02/10 19:14:19;;;;;;;11.52;1.35;;;;;;;7.22;100.00;100527.16;5088418;28;20052;-79
2022/02/10 19:17:27;;;;;;;3.28;1.10;;;;;;;7.29;100.00;100538.06;5087378;28;20047;-81
2022/02/10 19:20:33;;;;;;;2.30;0.82;;;;;;;7.34;100.00;100537.50;5087733;28;20071;-80
2022/02/10 19:23:36;;;;;;;2.47;0.65;;;;;;;7.34;100.00;100543.06;5087582;28;20063;-79
2022/02/10 19:26:40;;;;;;;1.13;0.45;;;;;;;7.35;100.00;100544.63;5086887;28;20055;-80
2022/02/10 19:29:44;;;;;;;2.22;1.15;;;;;;;7.40;100.00;100546.88;5088005;28;20055;-80
2022/02/10 19:32:53;;;;;;;0.38;0.30;;;;;;;7.42;100.00;100555.53;5088300;28;20055;-81
2022/02/10 19:35:56;;;;;;;0.95;0.52;;;;;;;7.40;100.00;100557.94;5048030;28;20052;-79
2022/02/10 19:39:00;;;;;;;1.10;0.88;;;;;;;7.45;100.00;100568.47;5087162;28;20051;-77
2022/02/10 19:42:03;;;;;;;5.63;1.55;;;;;;;7.45;100.00;100574.03;5088215;28;20055;-80
2022/02/10 19:45:08;;;;;;;1.58;0.95;;;;;;;7.55;100.00;100567.44;5087963;28;20508;-79
2022/02/10 19:48:11;;;;;;;0.60;0.60;;;;;;;7.63;100.00;100563.25;5087827;28;20059;-79
2022/02/10 19:51:15;;;;;;;0.55;0.20;;;;;;;7.60;100.00;100575.19;5086902;28;20047;-79
2022/02/10 19:54:25;;;;;;;8.98;1.85;;;;;;;7.57;100.00;100576.09;5088075;28;20055;-79
2022/02/10 19:57:29;;;;;;;25.98;0.85;;;;;;;7.61;100.00;100568.44;5086981;28;20532;-80
2022/02/10 20:00:39;;;;;;;5.38;0.90;;;;;;;7.61;100.00;100564.91;5087786;28;20118;-79
2022/02/10 20:03:43;;;;;;;1.73;0.70;;;;;;;7.57;100.00;100559.47;5080669;28;20109;-79
2022/02/10 20:06:47;;;;;;;9.90;1.80;;;;;;;7.46;100.00;100556.19;5074098;28;20106;-79
2022/02/10 20:09:51;;;;;;;1.42;0.40;;;;;;;7.38;100.00;100563.16;5087405;28;20059;-79
2022/02/10 20:12:54;;;;;;;5.55;0.50;;;;;;;7.26;100.00;100566.63;5086609;28;20051;-80
2022/02/10 20:16:01;;;;;;;0.55;0.40;;;;;;;7.24;100.00;100560.75;5072823;28;20393;-78
2022/02/10 20:19:08;;;;;;;0.20;0.20;;;;;;;7.17;100.00;100557.41;5073903;28;20052;-78
2022/02/10 20:22:13;;;;;;;16.63;1.27;;;;;;;7.10;100.00;100566.66;5072854;28;20048;-78
2022/02/10 20:25:17;;;;;;;2.60;0.70;;;;;;;7.05;100.00;100572.72;5073533;28;20413;-79
2022/02/10 20:28:22;;;;;;;3.95;0.93;;;;;;;7.05;100.00;100569.94;5073329;28;20505;-78
2022/02/10 20:31:28;;;;;;;0.50;0.50;;;;;;;7.06;100.00;100567.97;5072542;28;20067;-79
2022/02/10 20:34:33;;;;;;;0.50;0.32;;;;;;;7.12;100.00;100571.75;5060653;28;20044;-79
2022/02/10 20:37:36;;;;;;;1.13;0.70;;;;;;;7.12;100.00;100563.44;5066225;28;20064;-79
2022/02/10 20:40:43;;;;;;;0.30;0.30;;;;;;;7.17;100.00;100571.25;5072053;28;20044;-79
2022/02/10 20:43:49;;;;;;;3.53;0.85;;;;;;;7.16;100.00;100561.38;5050810;28;20056;-80
2022/02/10 20:46:53;;;;;;;0.30;0.30;;;;;;;7.17;100.00;100572.00;5061189;28;20052;-80
2022/02/10 20:49:56;;;;;;;0.10;0.10;;;;;;;7.26;100.00;100565.84;5032319;28;20143;-78
2022/02/10 20:53:00;;;;;;;0.30;0.30;;;;;;;7.27;100.00;100568.19;5033625;28;20064;-78
2022/02/10 20:56:06;;;;;;;8.57;0.75;;;;;;;7.28;100.00;100585.56;5034661;28;20048;-78
2022/02/10 20:59:30;;;;;;;11.52;0.52;;;;;;;7.30;100.00;100594.22;5033071;28;20052;-79
2022/02/10 21:02:39;;;;;;;0.32;0.32;;;;;;;7.26;100.00;100590.78;5051332;28;20056;-78
2022/02/10 21:05:44;;;;;;;6.03;0.93;;;;;;;7.25;100.00;100592.78;5052294;28;20083;-79
2022/02/10 21:08:55;;;;;;;0.25;0.25;;;;;;;7.28;100.00;100596.66;5053136;28;20060;-78
2022/02/10 21:11:59;;;;;;;9.45;1.20;;;;;;;7.34;100.00;100604.00;5052793;28;20056;-78
2022/02/10 21:15:07;;;;;;;7.32;0.55;;;;;;;7.29;100.00;100599.00;5053014;28;20516;-78
2022/02/10 21:18:13;;;;;;;9.27;1.17;;;;;;;7.20;100.00;100596.06;5071933;28;20405;-78
2022/02/10 21:21:18;;;;;;;1.55;0.63;;;;;;;7.15;100.00;100604.91;5072827;28;20505;-79
2022/02/10 21:24:27;;;;;;;0.52;0.50;;;;;;;7.10;100.00;100599.13;5071671;28;20063;-78
2022/02/10 21:27:51;;;;;;;0.68;0.40;;;;;;;7.09;100.00;100626.03;5071407;28;20055;-78
2022/02/10 21:30:58;;;;;;;9.68;0.82;;;;;;;6.98;100.00;100625.50;5066596;28;20060;-78
2022/02/10 21:34:14;;;;;;;10.57;0.77;;;;;;;6.88;100.00;100627.31;5051545;28;20414;-78
2022/02/10 21:37:21;;;;;;;10.43;1.27;;;;;;;6.78;100.00;100630.31;5063567;28;20052;-78
2022/02/10 21:59:56;;;;;;;0.63;0.63;;;;;;;6.45;100.00;100667.44;5072081;28;20063;-77
2022/02/10 22:03:30;;;;;;;3.03;0.93;;;;;;;6.51;100.00;100662.97;5030733;28;20056;-78
2022/02/10 22:09:50;;;;;;;2.08;0.70;;;;;;;6.58;100.00;100676.66;5072115;28;20393;-80
2022/02/10 22:19:35;;;;;;;0.68;0.25;;;;;;;6.70;100.00;100675.97;5071570;28;20052;-84
2022/02/10 22:22:50;;;;;;;0.30;0.30;;;;;;;6.67;100.00;100687.94;5072167;28;20051;-82
2022/02/10 22:26:01;;;;;;;0.20;0.20;;;;;;;6.65;100.00;100687.56;5070005;28;20055;-81
2022/02/10 22:29:10;;;;;;;0.30;0.30;;;;;;;6.59;100.00;100689.28;5030887;28;20564;-80
2022/02/10 22:32:27;;;;;;;0.10;0.10;;;;;;;6.53;100.00;100693.75;5030760;28;20064;-80
2022/02/10 22:35:32;;;;;;;0.40;0.40;;;;;;;6.45;100.00;100700.66;5030432;28;20056;-80
2022/02/10 22:38:36;;;;;;;0.75;0.52;;;;;;;6.42;100.00;100701.50;5030340;28;20491;-80
2022/02/10 22:41:40;;;;;;;2.38;0.30;;;;;;;6.32;100.00;100702.50;5030531;28;20065;-80
2022/02/10 22:44:44;;;;;;;0.75;0.55;;;;;;;6.37;100.00;100704.75;5031460;28;20060;-80
2022/02/10 22:47:47;;;;;;;4.60;0.85;;;;;;;6.30;100.00;100705.69;5061327;28;20063;-80
2022/02/10 22:50:50;;;;;;;7.82;1.02;;;;;;;6.23;100.00;100710.56;5070171;28;20047;-79
2022/02/10 22:53:54;;;;;;;2.00;0.45;;;;;;;6.17;100.00;100718.59;5069979;28;20516;-80
2022/02/10 22:56:58;;;;;;;0.80;0.80;;;;;;;6.15;100.00;100715.44;5069987;28;20422;-80
2022/02/10 23:00:07;;;;;;;1.70;0.82;;;;;;;6.13;100.00;100736.47;5070209;28;20115;-80
2022/02/10 23:03:10;;;;;;;0.40;0.40;;;;;;;6.11;100.00;100740.41;5069512;28;20056;-80
2022/02/10 23:06:15;;;;;;;2.58;0.65;;;;;;;6.18;100.00;100747.00;5069906;28;20409;-81
2022/02/10 23:12:35;;;;;;;0.75;0.55;;;;;;;6.39;100.00;100758.44;5071545;28;20052;-81
2022/02/10 23:15:39;;;;;;;10.02;1.15;;;;;;;6.34;100.00;100756.19;5070687;28;20047;-82
2022/02/10 23:18:45;;;;;;;0.65;0.50;;;;;;;6.38;100.00;100759.66;5071214;28;20500;-80
2022/02/10 23:21:48;;;;;;;0.43;0.43;;;;;;;6.42;100.00;100756.81;5070219;28;20060;-80
2022/02/10 23:24:51;;;;;;;0.68;0.40;;;;;;;6.34;100.00;100772.00;5071022;28;20059;-81
2022/02/10 23:27:55;;;;;;;3.40;1.42;;;;;;;6.23;100.00;100771.44;5070582;28;20051;-80
2022/02/10 23:31:00;;;;;;;9.05;2.25;;;;;;;6.09;100.00;100778.78;5070180;28;20067;-80
2022/02/10 23:34:04;;;;;;;1.30;0.63;;;;;;;5.97;100.00;100787.69;5070963;28;20067;-80
2022/02/10 23:37:08;;;;;;;1.75;1.00;;;;;;;5.87;100.00;100794.16;5069539;28;20496;-80
2022/02/10 23:40:11;;;;;;;1.88;0.40;;;;;;;5.81;100.00;100815.16;5069930;28;20099;-80
2022/02/10 23:43:17;;;;;;;0.55;0.55;;;;;;;5.83;100.00;100810.00;5070637;28;20161;-81
2022/02/10 23:46:21;;;;;;;0.28;0.28;;;;;;;5.94;100.00;100815.38;5070627;28;20047;-81
2022/02/10 23:49:26;;;;;;;4.05;1.02;;;;;;;6.01;100.00;100809.75;5070409;28;20048;-80
2022/02/10 23:52:30;;;;;;;0.45;0.45;;;;;;;6.01;100.00;100812.50;5074242;28;20055;-81
2022/02/10 23:55:37;;;;;;;10.60;0.50;;;;;;;5.97;100.00;100812.56;5073569;28;20512;-80
